sensor_id;sensor_type;location;lat;lon;timestamp;P1;durP1;ratioP1;P2;durP2;ratioP2
23142;SDS011;11740;51.168;4.112;2023-07-09T00:02:11;6.03;;;4.47;;
23142;SDS011;11740;51.168;4.112;2023-07-09T00:04:38;7.00;;;4.60;;
23142;SDS011;11740;51.168;4.112;2023-07-09T00:07:08;6.10;;;4.40;;
23142;SDS011;11740;51.168;4.112;2023-07-09T00:09:55;7.03;;;4.30;;
23142;SDS011;11740;51.168;4.112;2023-07-09T00:12:22;6.05;;;4.20;;
23142;SDS011;11740;51.168;4.112;2023-07-09T00:14:49;7.20;;;4.47;;
23142;SDS011;11740;51.168;4.112;2023-07-09T00:17:25;7.35;;;4.57;;
23142;SDS011;11740;51.168;4.112;2023-07-09T00:19:55;6.90;;;4.45;;
23142;SDS011;11740;51.168;4.112;2023-07-09T00:22:23;6.10;;;4.10;;
23142;SDS011;11740;51.168;4.112;2023-07-09T00:24:50;4.20;;;3.70;;
23142;SDS011;11740;51.168;4.112;2023-07-09T00:27:18;7.00;;;4.07;;
23142;SDS011;11740;51.168;4.112;2023-07-09T00:29:47;6.68;;;4.10;;
23142;SDS011;11740;51.168;4.112;2023-07-09T00:32:15;4.88;;;3.72;;
23142;SDS011;11740;51.168;4.112;2023-07-09T00:34:47;5.97;;;4.07;;
23142;SDS011;11740;51.168;4.112;2023-07-09T00:37:16;6.35;;;4.18;;
23142;SDS011;11740;51.168;4.112;2023-07-09T00:39:46;12.32;;;4.18;;
23142;SDS011;11740;51.168;4.112;2023-07-09T00:42:15;6.00;;;3.97;;
23142;SDS011;11740;51.168;4.112;2023-07-09T00:44:45;4.28;;;3.60;;
23142;SDS011;11740;51.168;4.112;2023-07-09T00:50:11;6.32;;;3.75;;
23142;SDS011;11740;51.168;4.112;2023-07-09T00:52:56;8.15;;;4.15;;
23142;SDS011;11740;51.168;4.112;2023-07-09T00:55:34;6.13;;;4.10;;
23142;SDS011;11740;51.168;4.112;2023-07-09T00:58:06;6.95;;;4.38;;
23142;SDS011;11740;51.168;4.112;2023-07-09T01:00:39;7.43;;;4.38;;
23142;SDS011;11740;51.168;4.112;2023-07-09T01:06:02;4.80;;;3.95;;
23142;SDS011;11740;51.168;4.112;2023-07-09T01:08:32;7.25;;;4.20;;
23142;SDS011;11740;51.168;4.112;2023-07-09T01:11:02;6.28;;;3.97;;
23142;SDS011;11740;51.168;4.112;2023-07-09T01:13:29;4.82;;;3.97;;
23142;SDS011;11740;51.168;4.112;2023-07-09T01:16:01;7.50;;;3.90;;
23142;SDS011;11740;51.168;4.112;2023-07-09T01:18:29;4.57;;;3.72;;
23142;SDS011;11740;51.168;4.112;2023-07-09T01:21:03;5.18;;;4.30;;
23142;SDS011;11740;51.168;4.112;2023-07-09T01:23:42;6.55;;;4.20;;
23142;SDS011;11740;51.168;4.112;2023-07-09T01:26:16;6.75;;;4.00;;
23142;SDS011;11740;51.168;4.112;2023-07-09T01:28:46;7.75;;;4.00;;
23142;SDS011;11740;51.168;4.112;2023-07-09T01:31:14;5.50;;;3.63;;
23142;SDS011;11740;51.168;4.112;2023-07-09T01:33:42;4.85;;;3.75;;
23142;SDS011;11740;51.168;4.112;2023-07-09T01:36:16;6.45;;;4.00;;
23142;SDS011;11740;51.168;4.112;2023-07-09T01:38:49;4.97;;;3.80;;
23142;SDS011;11740;51.168;4.112;2023-07-09T01:41:19;5.00;;;4.10;;
23142;SDS011;11740;51.168;4.112;2023-07-09T01:43:46;6.18;;;3.92;;
23142;SDS011;11740;51.168;4.112;2023-07-09T01:46:13;8.50;;;5.03;;
23142;SDS011;11740;51.168;4.112;2023-07-09T01:48:40;6.22;;;4.68;;
23142;SDS011;11740;51.168;4.112;2023-07-09T01:51:08;6.82;;;4.50;;
23142;SDS011;11740;51.168;4.112;2023-07-09T01:53:38;7.85;;;4.50;;
23142;SDS011;11740;51.168;4.112;2023-07-09T01:56:06;6.57;;;4.50;;
23142;SDS011;11740;51.168;4.112;2023-07-09T01:58:34;9.23;;;4.70;;
23142;SDS011;11740;51.168;4.112;2023-07-09T02:01:01;7.40;;;4.70;;
23142;SDS011;11740;51.168;4.112;2023-07-09T02:03:28;6.38;;;4.60;;
23142;SDS011;11740;51.168;4.112;2023-07-09T02:05:55;6.75;;;5.00;;
23142;SDS011;11740;51.168;4.112;2023-07-09T02:08:24;7.95;;;4.78;;
23142;SDS011;11740;51.168;4.112;2023-07-09T02:10:51;8.77;;;5.15;;
23142;SDS011;11740;51.168;4.112;2023-07-09T02:13:18;8.73;;;5.00;;
23142;SDS011;11740;51.168;4.112;2023-07-09T02:15:45;8.55;;;5.05;;
23142;SDS011;11740;51.168;4.112;2023-07-09T02:18:14;8.00;;;4.75;;
23142;SDS011;11740;51.168;4.112;2023-07-09T02:20:42;7.32;;;4.63;;
23142;SDS011;11740;51.168;4.112;2023-07-09T02:23:08;6.07;;;4.70;;
23142;SDS011;11740;51.168;4.112;2023-07-09T02:25:35;5.97;;;5.00;;
23142;SDS011;11740;51.168;4.112;2023-07-09T02:28:03;8.02;;;5.07;;
23142;SDS011;11740;51.168;4.112;2023-07-09T02:30:30;9.90;;;6.15;;
23142;SDS011;11740;51.168;4.112;2023-07-09T02:32:57;9.98;;;5.15;;
23142;SDS011;11740;51.168;4.112;2023-07-09T02:35:24;9.18;;;5.50;;
23142;SDS011;11740;51.168;4.112;2023-07-09T02:37:51;6.40;;;5.68;;
23142;SDS011;11740;51.168;4.112;2023-07-09T02:40:18;7.53;;;5.80;;
23142;SDS011;11740;51.168;4.112;2023-07-09T02:42:45;8.75;;;5.97;;
23142;SDS011;11740;51.168;4.112;2023-07-09T02:45:12;6.45;;;5.18;;
23142;SDS011;11740;51.168;4.112;2023-07-09T02:47:39;7.10;;;5.80;;
23142;SDS011;11740;51.168;4.112;2023-07-09T02:50:06;8.60;;;5.80;;
23142;SDS011;11740;51.168;4.112;2023-07-09T02:52:33;8.65;;;6.10;;
23142;SDS011;11740;51.168;4.112;2023-07-09T02:55:00;8.13;;;6.55;;
23142;SDS011;11740;51.168;4.112;2023-07-09T02:57:27;9.02;;;6.18;;
23142;SDS011;11740;51.168;4.112;2023-07-09T02:59:54;7.85;;;6.88;;
23142;SDS011;11740;51.168;4.112;2023-07-09T03:02:21;7.65;;;6.22;;
23142;SDS011;11740;51.168;4.112;2023-07-09T03:04:48;9.57;;;6.60;;
23142;SDS011;11740;51.168;4.112;2023-07-09T03:07:15;9.82;;;7.53;;
23142;SDS011;11740;51.168;4.112;2023-07-09T03:09:42;10.88;;;6.45;;
23142;SDS011;11740;51.168;4.112;2023-07-09T03:12:09;8.40;;;6.60;;
23142;SDS011;11740;51.168;4.112;2023-07-09T03:14:36;9.65;;;6.47;;
23142;SDS011;11740;51.168;4.112;2023-07-09T03:17:03;11.10;;;7.18;;
23142;SDS011;11740;51.168;4.112;2023-07-09T03:19:30;9.82;;;7.53;;
23142;SDS011;11740;51.168;4.112;2023-07-09T03:22:01;10.30;;;7.40;;
23142;SDS011;11740;51.168;4.112;2023-07-09T03:24:28;11.05;;;7.22;;
23142;SDS011;11740;51.168;4.112;2023-07-09T03:26:56;12.30;;;7.82;;
23142;SDS011;11740;51.168;4.112;2023-07-09T03:29:23;8.65;;;7.75;;
23142;SDS011;11740;51.168;4.112;2023-07-09T03:31:50;10.75;;;7.10;;
23142;SDS011;11740;51.168;4.112;2023-07-09T03:34:17;10.00;;;7.25;;
23142;SDS011;11740;51.168;4.112;2023-07-09T03:36:44;12.13;;;8.05;;
23142;SDS011;11740;51.168;4.112;2023-07-09T03:39:13;10.27;;;7.40;;
23142;SDS011;11740;51.168;4.112;2023-07-09T03:41:40;10.15;;;8.80;;
23142;SDS011;11740;51.168;4.112;2023-07-09T03:44:06;9.57;;;7.95;;
23142;SDS011;11740;51.168;4.112;2023-07-09T03:46:34;11.13;;;9.00;;
23142;SDS011;11740;51.168;4.112;2023-07-09T03:49:01;13.55;;;9.02;;
23142;SDS011;11740;51.168;4.112;2023-07-09T03:51:27;12.32;;;8.05;;
23142;SDS011;11740;51.168;4.112;2023-07-09T03:53:54;11.55;;;8.80;;
23142;SDS011;11740;51.168;4.112;2023-07-09T03:56:21;11.60;;;9.02;;
23142;SDS011;11740;51.168;4.112;2023-07-09T03:58:48;10.88;;;8.88;;
23142;SDS011;11740;51.168;4.112;2023-07-09T04:01:15;12.18;;;9.90;;
23142;SDS011;11740;51.168;4.112;2023-07-09T04:03:43;12.73;;;10.95;;
23142;SDS011;11740;51.168;4.112;2023-07-09T04:06:10;16.20;;;11.75;;
23142;SDS011;11740;51.168;4.112;2023-07-09T04:08:37;15.73;;;13.30;;
23142;SDS011;11740;51.168;4.112;2023-07-09T04:11:04;16.70;;;13.13;;
23142;SDS011;11740;51.168;4.112;2023-07-09T04:13:31;14.30;;;11.20;;
23142;SDS011;11740;51.168;4.112;2023-07-09T04:15:59;13.30;;;11.50;;
23142;SDS011;11740;51.168;4.112;2023-07-09T04:18:26;13.50;;;10.98;;
23142;SDS011;11740;51.168;4.112;2023-07-09T04:20:53;19.63;;;11.25;;
23142;SDS011;11740;51.168;4.112;2023-07-09T04:23:20;10.20;;;8.98;;
23142;SDS011;11740;51.168;4.112;2023-07-09T04:25:47;12.98;;;10.60;;
23142;SDS011;11740;51.168;4.112;2023-07-09T04:28:15;17.23;;;12.25;;
23142;SDS011;11740;51.168;4.112;2023-07-09T04:30:46;15.38;;;12.05;;
23142;SDS011;11740;51.168;4.112;2023-07-09T04:33:18;15.13;;;11.68;;
23142;SDS011;11740;51.168;4.112;2023-07-09T04:35:47;17.88;;;13.23;;
23142;SDS011;11740;51.168;4.112;2023-07-09T04:38:14;18.92;;;14.20;;
23142;SDS011;11740;51.168;4.112;2023-07-09T04:40:42;15.82;;;13.93;;
23142;SDS011;11740;51.168;4.112;2023-07-09T04:43:09;19.42;;;15.00;;
23142;SDS011;11740;51.168;4.112;2023-07-09T04:45:37;23.35;;;17.25;;
23142;SDS011;11740;51.168;4.112;2023-07-09T04:48:04;23.15;;;18.38;;
23142;SDS011;11740;51.168;4.112;2023-07-09T04:50:32;25.85;;;19.20;;
23142;SDS011;11740;51.168;4.112;2023-07-09T04:52:59;25.55;;;19.90;;
23142;SDS011;11740;51.168;4.112;2023-07-09T04:55:26;23.73;;;19.40;;
23142;SDS011;11740;51.168;4.112;2023-07-09T04:57:53;31.30;;;23.17;;
23142;SDS011;11740;51.168;4.112;2023-07-09T05:00:20;29.10;;;21.90;;
23142;SDS011;11740;51.168;4.112;2023-07-09T05:02:48;28.17;;;23.83;;
23142;SDS011;11740;51.168;4.112;2023-07-09T05:05:15;29.55;;;24.15;;
23142;SDS011;11740;51.168;4.112;2023-07-09T05:07:42;29.00;;;24.23;;
23142;SDS011;11740;51.168;4.112;2023-07-09T05:10:09;31.95;;;25.67;;
23142;SDS011;11740;51.168;4.112;2023-07-09T05:12:46;30.65;;;25.48;;
23142;SDS011;11740;51.168;4.112;2023-07-09T05:15:19;27.92;;;24.33;;
23142;SDS011;11740;51.168;4.112;2023-07-09T05:17:48;29.85;;;25.70;;
23142;SDS011;11740;51.168;4.112;2023-07-09T05:20:15;27.33;;;23.50;;
23142;SDS011;11740;51.168;4.112;2023-07-09T05:22:42;33.15;;;25.15;;
23142;SDS011;11740;51.168;4.112;2023-07-09T05:25:09;32.67;;;27.98;;
23142;SDS011;11740;51.168;4.112;2023-07-09T05:27:38;34.17;;;30.15;;
23142;SDS011;11740;51.168;4.112;2023-07-09T05:30:05;31.98;;;27.38;;
23142;SDS011;11740;51.168;4.112;2023-07-09T05:32:33;29.88;;;26.00;;
23142;SDS011;11740;51.168;4.112;2023-07-09T05:35:00;38.38;;;31.52;;
23142;SDS011;11740;51.168;4.112;2023-07-09T05:37:27;40.10;;;32.15;;
23142;SDS011;11740;51.168;4.112;2023-07-09T05:39:54;43.30;;;35.08;;
23142;SDS011;11740;51.168;4.112;2023-07-09T05:42:22;36.72;;;32.63;;
23142;SDS011;11740;51.168;4.112;2023-07-09T05:44:49;39.97;;;34.20;;
23142;SDS011;11740;51.168;4.112;2023-07-09T05:47:15;44.35;;;37.05;;
23142;SDS011;11740;51.168;4.112;2023-07-09T05:49:43;41.78;;;35.78;;
23142;SDS011;11740;51.168;4.112;2023-07-09T05:52:10;41.38;;;36.97;;
23142;SDS011;11740;51.168;4.112;2023-07-09T05:54:37;44.15;;;37.92;;
23142;SDS011;11740;51.168;4.112;2023-07-09T05:57:04;38.50;;;32.92;;
23142;SDS011;11740;51.168;4.112;2023-07-09T05:59:31;45.10;;;36.63;;
23142;SDS011;11740;51.168;4.112;2023-07-09T06:01:59;45.05;;;37.60;;
23142;SDS011;11740;51.168;4.112;2023-07-09T06:04:27;45.33;;;37.28;;
23142;SDS011;11740;51.168;4.112;2023-07-09T06:06:55;43.17;;;35.75;;
23142;SDS011;11740;51.168;4.112;2023-07-09T06:09:22;40.90;;;35.47;;
23142;SDS011;11740;51.168;4.112;2023-07-09T06:11:49;43.67;;;35.78;;
23142;SDS011;11740;51.168;4.112;2023-07-09T06:14:17;45.83;;;38.67;;
23142;SDS011;11740;51.168;4.112;2023-07-09T06:16:44;40.10;;;35.35;;
23142;SDS011;11740;51.168;4.112;2023-07-09T06:19:11;41.10;;;36.60;;
23142;SDS011;11740;51.168;4.112;2023-07-09T06:21:39;44.63;;;37.60;;
23142;SDS011;11740;51.168;4.112;2023-07-09T06:24:07;41.63;;;36.22;;
23142;SDS011;11740;51.168;4.112;2023-07-09T06:26:35;36.78;;;31.98;;
23142;SDS011;11740;51.168;4.112;2023-07-09T06:29:02;42.22;;;37.33;;
23142;SDS011;11740;51.168;4.112;2023-07-09T06:31:29;38.10;;;34.03;;
23142;SDS011;11740;51.168;4.112;2023-07-09T06:33:57;37.15;;;31.95;;
23142;SDS011;11740;51.168;4.112;2023-07-09T06:36:24;36.50;;;30.50;;
23142;SDS011;11740;51.168;4.112;2023-07-09T06:38:51;39.72;;;32.15;;
23142;SDS011;11740;51.168;4.112;2023-07-09T06:41:18;40.33;;;33.08;;
23142;SDS011;11740;51.168;4.112;2023-07-09T06:43:45;39.63;;;34.58;;
23142;SDS011;11740;51.168;4.112;2023-07-09T06:46:13;38.28;;;33.30;;
23142;SDS011;11740;51.168;4.112;2023-07-09T06:48:41;44.33;;;35.25;;
23142;SDS011;11740;51.168;4.112;2023-07-09T06:51:08;41.70;;;36.22;;
23142;SDS011;11740;51.168;4.112;2023-07-09T06:53:35;37.42;;;32.10;;
23142;SDS011;11740;51.168;4.112;2023-07-09T06:56:02;37.25;;;30.73;;
23142;SDS011;11740;51.168;4.112;2023-07-09T06:58:30;34.60;;;30.58;;
23142;SDS011;11740;51.168;4.112;2023-07-09T07:01:03;37.17;;;31.25;;
23142;SDS011;11740;51.168;4.112;2023-07-09T07:03:31;40.67;;;34.90;;
23142;SDS011;11740;51.168;4.112;2023-07-09T07:06:00;37.28;;;33.03;;
23142;SDS011;11740;51.168;4.112;2023-07-09T07:08:27;30.52;;;26.58;;
23142;SDS011;11740;51.168;4.112;2023-07-09T07:10:56;32.72;;;27.40;;
23142;SDS011;11740;51.168;4.112;2023-07-09T07:13:29;38.78;;;32.70;;
23142;SDS011;11740;51.168;4.112;2023-07-09T07:15:58;33.70;;;30.10;;
23142;SDS011;11740;51.168;4.112;2023-07-09T07:18:25;33.83;;;28.45;;
23142;SDS011;11740;51.168;4.112;2023-07-09T07:20:52;33.03;;;27.27;;
23142;SDS011;11740;51.168;4.112;2023-07-09T07:23:20;30.95;;;26.48;;
23142;SDS011;11740;51.168;4.112;2023-07-09T07:25:47;27.50;;;22.10;;
23142;SDS011;11740;51.168;4.112;2023-07-09T07:28:14;25.98;;;21.23;;
23142;SDS011;11740;51.168;4.112;2023-07-09T07:30:42;21.55;;;17.65;;
23142;SDS011;11740;51.168;4.112;2023-07-09T07:33:10;19.27;;;15.02;;
23142;SDS011;11740;51.168;4.112;2023-07-09T07:35:40;15.98;;;12.27;;
23142;SDS011;11740;51.168;4.112;2023-07-09T07:38:27;17.42;;;11.88;;
23142;SDS011;11740;51.168;4.112;2023-07-09T07:40:53;15.98;;;10.85;;
23142;SDS011;11740;51.168;4.112;2023-07-09T07:43:20;14.52;;;10.57;;
23142;SDS011;11740;51.168;4.112;2023-07-09T07:45:48;14.00;;;10.32;;
23142;SDS011;11740;51.168;4.112;2023-07-09T07:48:15;15.23;;;10.30;;
23142;SDS011;11740;51.168;4.112;2023-07-09T07:50:42;12.05;;;9.68;;
23142;SDS011;11740;51.168;4.112;2023-07-09T07:53:12;12.95;;;9.60;;
23142;SDS011;11740;51.168;4.112;2023-07-09T07:55:40;13.25;;;9.50;;
23142;SDS011;11740;51.168;4.112;2023-07-09T07:58:12;13.88;;;8.63;;
23142;SDS011;11740;51.168;4.112;2023-07-09T08:00:39;13.07;;;8.73;;
23142;SDS011;11740;51.168;4.112;2023-07-09T08:03:06;11.43;;;8.93;;
23142;SDS011;11740;51.168;4.112;2023-07-09T08:05:34;13.55;;;8.10;;
23142;SDS011;11740;51.168;4.112;2023-07-09T08:08:01;12.63;;;8.10;;
23142;SDS011;11740;51.168;4.112;2023-07-09T08:10:27;15.18;;;8.23;;
23142;SDS011;11740;51.168;4.112;2023-07-09T08:12:54;11.43;;;7.97;;
23142;SDS011;11740;51.168;4.112;2023-07-09T08:15:23;11.02;;;7.57;;
23142;SDS011;11740;51.168;4.112;2023-07-09T08:17:51;9.02;;;6.65;;
23142;SDS011;11740;51.168;4.112;2023-07-09T08:20:18;9.55;;;6.13;;
23142;SDS011;11740;51.168;4.112;2023-07-09T08:22:45;10.50;;;5.78;;
23142;SDS011;11740;51.168;4.112;2023-07-09T08:25:12;13.35;;;5.97;;
23142;SDS011;11740;51.168;4.112;2023-07-09T08:27:39;7.65;;;5.00;;
23142;SDS011;11740;51.168;4.112;2023-07-09T08:30:07;11.82;;;5.55;;
23142;SDS011;11740;51.168;4.112;2023-07-09T08:32:34;9.60;;;5.38;;
23142;SDS011;11740;51.168;4.112;2023-07-09T08:35:01;9.23;;;4.72;;
23142;SDS011;11740;51.168;4.112;2023-07-09T08:37:31;7.75;;;4.07;;
23142;SDS011;11740;51.168;4.112;2023-07-09T08:39:58;8.57;;;4.35;;
23142;SDS011;11740;51.168;4.112;2023-07-09T08:42:28;6.80;;;4.25;;
23142;SDS011;11740;51.168;4.112;2023-07-09T08:48:08;5.60;;;3.60;;
23142;SDS011;11740;51.168;4.112;2023-07-09T08:50:57;6.05;;;3.80;;
23142;SDS011;11740;51.168;4.112;2023-07-09T08:53:32;4.50;;;3.35;;
23142;SDS011;11740;51.168;4.112;2023-07-09T08:56:09;7.10;;;3.45;;
23142;SDS011;11740;51.168;4.112;2023-07-09T08:58:36;9.40;;;4.70;;
23142;SDS011;11740;51.168;4.112;2023-07-09T09:01:05;9.80;;;5.18;;
23142;SDS011;11740;51.168;4.112;2023-07-09T09:03:48;7.50;;;4.20;;
23142;SDS011;11740;51.168;4.112;2023-07-09T09:06:20;6.80;;;3.78;;
23142;SDS011;11740;51.168;4.112;2023-07-09T09:14:27;9.38;;;3.20;;
23142;SDS011;11740;51.168;4.112;2023-07-09T09:17:14;5.95;;;3.10;;
23142;SDS011;11740;51.168;4.112;2023-07-09T09:19:59;5.65;;;3.22;;
23142;SDS011;11740;51.168;4.112;2023-07-09T09:25:33;4.45;;;2.75;;
23142;SDS011;11740;51.168;4.112;2023-07-09T09:28:04;4.68;;;2.65;;
23142;SDS011;11740;51.168;4.112;2023-07-09T09:30:31;8.07;;;3.00;;
23142;SDS011;11740;51.168;4.112;2023-07-09T09:32:58;8.60;;;3.30;;
23142;SDS011;11740;51.168;4.112;2023-07-09T09:35:39;5.00;;;3.10;;
23142;SDS011;11740;51.168;4.112;2023-07-09T09:38:15;5.45;;;3.63;;
23142;SDS011;11740;51.168;4.112;2023-07-09T09:40:48;5.82;;;3.05;;
23142;SDS011;11740;51.168;4.112;2023-07-09T09:43:19;3.38;;;2.92;;
23142;SDS011;11740;51.168;4.112;2023-07-09T09:45:49;7.78;;;3.25;;
23142;SDS011;11740;51.168;4.112;2023-07-09T09:48:27;5.47;;;3.08;;
23142;SDS011;11740;51.168;4.112;2023-07-09T09:50:58;3.83;;;2.55;;
23142;SDS011;11740;51.168;4.112;2023-07-09T09:53:34;3.30;;;2.90;;
23142;SDS011;11740;51.168;4.112;2023-07-09T09:56:11;3.60;;;2.85;;
23142;SDS011;11740;51.168;4.112;2023-07-09T09:58:53;3.90;;;2.88;;
23142;SDS011;11740;51.168;4.112;2023-07-09T10:01:32;4.95;;;2.70;;
23142;SDS011;11740;51.168;4.112;2023-07-09T10:04:05;5.30;;;3.38;;
23142;SDS011;11740;51.168;4.112;2023-07-09T10:06:37;5.15;;;3.30;;
23142;SDS011;11740;51.168;4.112;2023-07-09T10:17:36;6.53;;;2.80;;
23142;SDS011;11740;51.168;4.112;2023-07-09T10:20:08;3.53;;;2.88;;
23142;SDS011;11740;51.168;4.112;2023-07-09T10:37:29;5.25;;;2.88;;
23142;SDS011;11740;51.168;4.112;2023-07-09T10:40:12;2.72;;;2.42;;
23142;SDS011;11740;51.168;4.112;2023-07-09T10:42:44;4.85;;;2.80;;
23142;SDS011;11740;51.168;4.112;2023-07-09T10:45:20;5.30;;;2.58;;
23142;SDS011;11740;51.168;4.112;2023-07-09T10:48:02;5.75;;;2.70;;
23142;SDS011;11740;51.168;4.112;2023-07-09T10:50:38;5.15;;;3.08;;
23142;SDS011;11740;51.168;4.112;2023-07-09T10:53:16;3.83;;;2.63;;
23142;SDS011;11740;51.168;4.112;2023-07-09T10:56:10;5.53;;;3.28;;
23142;SDS011;11740;51.168;4.112;2023-07-09T11:01:29;5.03;;;2.97;;
23142;SDS011;11740;51.168;4.112;2023-07-09T11:06:43;4.25;;;3.05;;
23142;SDS011;11740;51.168;4.112;2023-07-09T11:12:04;4.32;;;2.83;;
23142;SDS011;11740;51.168;4.112;2023-07-09T11:14:41;8.25;;;3.20;;
23142;SDS011;11740;51.168;4.112;2023-07-09T11:17:15;8.15;;;3.78;;
23142;SDS011;11740;51.168;4.112;2023-07-09T11:19:47;7.40;;;3.42;;
23142;SDS011;11740;51.168;4.112;2023-07-09T11:22:24;5.30;;;3.35;;
23142;SDS011;11740;51.168;4.112;2023-07-09T11:27:46;5.53;;;2.80;;
23142;SDS011;11740;51.168;4.112;2023-07-09T11:30:23;6.40;;;2.97;;
23142;SDS011;11740;51.168;4.112;2023-07-09T11:32:54;6.15;;;3.15;;
23142;SDS011;11740;51.168;4.112;2023-07-09T11:35:51;6.72;;;3.33;;
23142;SDS011;11740;51.168;4.112;2023-07-09T11:38:43;5.30;;;2.97;;
23142;SDS011;11740;51.168;4.112;2023-07-09T11:44:12;4.60;;;3.17;;
23142;SDS011;11740;51.168;4.112;2023-07-09T11:49:30;8.25;;;3.45;;
23142;SDS011;11740;51.168;4.112;2023-07-09T11:52:07;7.03;;;3.38;;
23142;SDS011;11740;51.168;4.112;2023-07-09T11:54:37;7.72;;;3.03;;
23142;SDS011;11740;51.168;4.112;2023-07-09T11:57:11;10.45;;;3.40;;
23142;SDS011;11740;51.168;4.112;2023-07-09T11:59:42;6.95;;;3.10;;
23142;SDS011;11740;51.168;4.112;2023-07-09T12:02:17;8.93;;;3.60;;
23142;SDS011;11740;51.168;4.112;2023-07-09T12:04:50;6.63;;;3.55;;
23142;SDS011;11740;51.168;4.112;2023-07-09T12:07:25;5.18;;;3.03;;
23142;SDS011;11740;51.168;4.112;2023-07-09T12:09:52;6.97;;;3.67;;
23142;SDS011;11740;51.168;4.112;2023-07-09T12:12:25;11.23;;;3.60;;
23142;SDS011;11740;51.168;4.112;2023-07-09T12:14:54;5.30;;;3.30;;
23142;SDS011;11740;51.168;4.112;2023-07-09T12:17:26;6.63;;;2.97;;
23142;SDS011;11740;51.168;4.112;2023-07-09T12:19:55;4.88;;;2.95;;
23142;SDS011;11740;51.168;4.112;2023-07-09T12:22:22;4.97;;;2.85;;
23142;SDS011;11740;51.168;4.112;2023-07-09T12:24:49;6.20;;;3.10;;
23142;SDS011;11740;51.168;4.112;2023-07-09T12:27:25;5.50;;;2.83;;
23142;SDS011;11740;51.168;4.112;2023-07-09T12:29:56;4.53;;;2.72;;
23142;SDS011;11740;51.168;4.112;2023-07-09T12:32:23;5.88;;;3.00;;
23142;SDS011;11740;51.168;4.112;2023-07-09T12:34:55;3.55;;;2.60;;
23142;SDS011;11740;51.168;4.112;2023-07-09T12:37:24;4.78;;;2.95;;
23142;SDS011;11740;51.168;4.112;2023-07-09T12:39:54;3.97;;;2.75;;
23142;SDS011;11740;51.168;4.112;2023-07-09T12:42:30;8.68;;;2.75;;
23142;SDS011;11740;51.168;4.112;2023-07-09T12:45:00;5.07;;;3.22;;
23142;SDS011;11740;51.168;4.112;2023-07-09T12:47:28;5.55;;;3.10;;
23142;SDS011;11740;51.168;4.112;2023-07-09T12:50:03;7.95;;;3.05;;
23142;SDS011;11740;51.168;4.112;2023-07-09T12:52:48;5.72;;;3.33;;
23142;SDS011;11740;51.168;4.112;2023-07-09T12:55:19;7.65;;;3.45;;
23142;SDS011;11740;51.168;4.112;2023-07-09T12:57:55;6.93;;;3.92;;
23142;SDS011;11740;51.168;4.112;2023-07-09T13:00:26;7.85;;;3.70;;
23142;SDS011;11740;51.168;4.112;2023-07-09T13:02:57;7.65;;;3.92;;
23142;SDS011;11740;51.168;4.112;2023-07-09T13:05:26;9.15;;;4.55;;
23142;SDS011;11740;51.168;4.112;2023-07-09T13:07:57;6.63;;;4.60;;
23142;SDS011;11740;51.168;4.112;2023-07-09T13:13:10;7.00;;;4.63;;
23142;SDS011;11740;51.168;4.112;2023-07-09T13:15:41;8.55;;;4.90;;
23142;SDS011;11740;51.168;4.112;2023-07-09T13:18:12;8.65;;;5.20;;
23142;SDS011;11740;51.168;4.112;2023-07-09T13:20:41;7.75;;;4.97;;
23142;SDS011;11740;51.168;4.112;2023-07-09T13:23:28;8.95;;;5.22;;
23142;SDS011;11740;51.168;4.112;2023-07-09T13:25:56;8.88;;;4.93;;
23142;SDS011;11740;51.168;4.112;2023-07-09T13:28:26;7.07;;;4.97;;
23142;SDS011;11740;51.168;4.112;2023-07-09T13:30:57;7.90;;;5.50;;
23142;SDS011;11740;51.168;4.112;2023-07-09T13:36:23;9.35;;;5.70;;
23142;SDS011;11740;51.168;4.112;2023-07-09T13:38:50;10.85;;;5.90;;
23142;SDS011;11740;51.168;4.112;2023-07-09T13:41:18;9.45;;;5.40;;
23142;SDS011;11740;51.168;4.112;2023-07-09T13:43:49;8.45;;;5.68;;
23142;SDS011;11740;51.168;4.112;2023-07-09T13:46:16;9.18;;;5.45;;
23142;SDS011;11740;51.168;4.112;2023-07-09T13:48:43;12.43;;;5.80;;
23142;SDS011;11740;51.168;4.112;2023-07-09T13:51:19;11.55;;;5.40;;
23142;SDS011;11740;51.168;4.112;2023-07-09T13:53:53;8.88;;;5.75;;
23142;SDS011;11740;51.168;4.112;2023-07-09T13:56:22;10.07;;;5.78;;
23142;SDS011;11740;51.168;4.112;2023-07-09T13:58:49;6.32;;;4.75;;
23142;SDS011;11740;51.168;4.112;2023-07-09T14:01:18;11.48;;;5.45;;
23142;SDS011;11740;51.168;4.112;2023-07-09T14:03:50;12.07;;;5.50;;
23142;SDS011;11740;51.168;4.112;2023-07-09T14:06:19;9.40;;;5.28;;
23142;SDS011;11740;51.168;4.112;2023-07-09T14:08:46;9.52;;;6.00;;
23142;SDS011;11740;51.168;4.112;2023-07-09T14:11:14;9.60;;;5.80;;
23142;SDS011;11740;51.168;4.112;2023-07-09T14:13:44;12.60;;;5.40;;
23142;SDS011;11740;51.168;4.112;2023-07-09T14:16:12;9.63;;;5.10;;
23142;SDS011;11740;51.168;4.112;2023-07-09T14:18:41;9.93;;;5.10;;
23142;SDS011;11740;51.168;4.112;2023-07-09T14:21:16;11.00;;;5.45;;
23142;SDS011;11740;51.168;4.112;2023-07-09T14:23:49;8.75;;;4.90;;
23142;SDS011;11740;51.168;4.112;2023-07-09T14:26:16;11.20;;;5.32;;
23142;SDS011;11740;51.168;4.112;2023-07-09T14:28:43;10.27;;;5.28;;
23142;SDS011;11740;51.168;4.112;2023-07-09T14:31:23;13.48;;;5.70;;
23142;SDS011;11740;51.168;4.112;2023-07-09T14:33:54;9.80;;;5.35;;
23142;SDS011;11740;51.168;4.112;2023-07-09T14:36:51;10.57;;;5.35;;
23142;SDS011;11740;51.168;4.112;2023-07-09T14:39:20;11.02;;;5.43;;
23142;SDS011;11740;51.168;4.112;2023-07-09T14:41:49;11.63;;;6.10;;
23142;SDS011;11740;51.168;4.112;2023-07-09T14:46:57;11.35;;;5.40;;
23142;SDS011;11740;51.168;4.112;2023-07-09T14:49:26;10.57;;;6.50;;
23142;SDS011;11740;51.168;4.112;2023-07-09T14:51:54;13.88;;;6.53;;
23142;SDS011;11740;51.168;4.112;2023-07-09T14:54:23;13.10;;;7.07;;
23142;SDS011;11740;51.168;4.112;2023-07-09T14:56:54;16.48;;;7.53;;
23142;SDS011;11740;51.168;4.112;2023-07-09T14:59:23;14.88;;;7.15;;
23142;SDS011;11740;51.168;4.112;2023-07-09T15:01:52;17.65;;;7.22;;
23142;SDS011;11740;51.168;4.112;2023-07-09T15:06:51;11.57;;;6.95;;
23142;SDS011;11740;51.168;4.112;2023-07-09T15:09:21;11.48;;;6.47;;
23142;SDS011;11740;51.168;4.112;2023-07-09T15:11:53;13.35;;;7.30;;
23142;SDS011;11740;51.168;4.112;2023-07-09T15:14:24;11.93;;;5.97;;
23142;SDS011;11740;51.168;4.112;2023-07-09T15:16:53;13.98;;;6.45;;
23142;SDS011;11740;51.168;4.112;2023-07-09T15:19:24;9.15;;;5.32;;
23142;SDS011;11740;51.168;4.112;2023-07-09T15:21:52;10.00;;;5.75;;
23142;SDS011;11740;51.168;4.112;2023-07-09T15:24:30;10.05;;;5.43;;
23142;SDS011;11740;51.168;4.112;2023-07-09T15:27:01;10.70;;;5.68;;
23142;SDS011;11740;51.168;4.112;2023-07-09T15:29:30;10.50;;;5.75;;
23142;SDS011;11740;51.168;4.112;2023-07-09T15:31:58;6.85;;;5.00;;
23142;SDS011;11740;51.168;4.112;2023-07-09T15:34:26;9.25;;;4.80;;
23142;SDS011;11740;51.168;4.112;2023-07-09T15:36:53;10.18;;;4.80;;
23142;SDS011;11740;51.168;4.112;2023-07-09T15:39:20;8.93;;;4.13;;
23142;SDS011;11740;51.168;4.112;2023-07-09T15:41:47;4.50;;;3.78;;
23142;SDS011;11740;51.168;4.112;2023-07-09T15:44:15;7.13;;;3.88;;
23142;SDS011;11740;51.168;4.112;2023-07-09T15:46:50;7.00;;;4.40;;
23142;SDS011;11740;51.168;4.112;2023-07-09T15:49:20;6.40;;;4.53;;
23142;SDS011;11740;51.168;4.112;2023-07-09T15:51:48;7.35;;;3.83;;
23142;SDS011;11740;51.168;4.112;2023-07-09T15:54:15;6.55;;;3.38;;
23142;SDS011;11740;51.168;4.112;2023-07-09T15:56:47;5.55;;;2.55;;
23142;SDS011;11740;51.168;4.112;2023-07-09T16:02:02;4.65;;;2.20;;
23142;SDS011;11740;51.168;4.112;2023-07-09T16:04:43;4.75;;;2.50;;
23142;SDS011;11740;51.168;4.112;2023-07-09T16:07:10;5.10;;;2.20;;